Lille-Lesquin Airport

LFQQ · North, Hauts-de-France, 法国

罗盘
风向 的 风向 320° Lille-Lesquin Airport 1/19
风: 4 kt, 2 beaufort

2 kt

3 kt
改变
0 1.000 2.000 3.000 4.000 5.000
OVC 400 ft
METAR LFAQ 050430Z AUTO 32004KT 2100 -SN BR OVC004 00/00 Q1017

METAR Lille-Lesquin Airport - LFQQ/LIL

Lille-Lesquin Airport是,法国中的中型机场。 该机场有2条跑道: 1/19 和 8/26. 该领域的国际民航组织标志是LFQQ 它的国际航空运输协会代码是LIL.

这份报告是针对2022年12月5日 05:30, 当地时间在Albert-Bray Airport进行的。

机场观察

风向为320°,速度为4 kt。

可见度为2,1 km。

有乌云密布在400 ft的高度。 破损或更高的上限为400 ft。

当前天气为光 雪, 薄雾。 温度为0 °C,阵风为-4 °C。 海平面上的气压为1017 hPa (QNH)。

白天

今天,太阳从08:31升起,在16:44降落。 这适用于Lille-Lesquin Airport,世界夏令时可能有所不同。 当地时间与世界标准时间之间的时差为+1 小时。 当前,没有夏令时有效。

公司介绍

在这个机场,你可以找到飞行俱乐部。 本场上唯一已知的公司是Club Aérien Lille Métropole。

体会

到Vliegles.nl去找飞行课程,跳伞和其他飞行体验。 浏览页面,了解Lille-Lesquin Airport附近所有可用的活动。 你也可以使用搜索功能来寻找你所在地附近的特定飞行课程、跳伞或其他飞行体验。

跑道

Id 标题 侧风 逆风 侧风 %
1/19 015°-195° 3 kt 2 kt 82 %
8/26 078°-258° 4 kt 2 kt 88 %

逆风成分最大的方向会被突出显示,并用于横风计算。 这并不一定意味着这个方向在使用。

乌云

400 ft OVC 乌云密布

温度 & 天气

天气 光 雪
薄雾
温度 0 °C
露点 0 °C
相对湿度 100%
风寒 -4 °C
Kp-index 0 (0-9)

白天

日出
08:30 (2:48)
中午
12:39
日落
16:48

小工具

你想在你的网站上有一个关于Lille-Lesquin Airport的当前航空天气(METAR)的小部件吗?

显示HTML代码

我们和第三方通过cookies跟踪您在我们网站上的互联网行为。如果你继续,我们认为你同意我们的饼干政策